Time;durP1;ratioP1;P1;durP2;ratioP2;P2;SDS_P1;SDS_P2;PMS_P1;PMS_P2;Temp;Humidity;BMP_temperature;BMP_pressure;BME280_temperature;BME280_humidity;BME280_pressure;Samples;Min_cycle;Max_cycle;Signal;HPM_P1;HPM_P2
2022/03/17 00:07:20;;;;;;;33.78;21.63;;;;;;;9.30;87.12;100953.84;20642232;28;20058;-72
2022/03/17 00:17:21;;;;;;;38.47;21.42;;;;;;;9.28;86.57;100962.53;20650102;28;20054;-72
2022/03/17 00:27:23;;;;;;;33.90;22.27;;;;;;;9.19;86.97;100963.41;20656708;28;20038;-72
2022/03/17 00:37:25;;;;;;;33.67;21.67;;;;;;;8.93;90.04;100959.09;20655603;28;20046;-72
2022/03/17 00:47:26;;;;;;;32.67;21.92;;;;;;;8.65;91.99;100960.81;20655190;28;20046;-72
2022/03/17 00:57:28;;;;;;;36.40;21.20;;;;;;;8.58;92.32;100963.44;20654286;28;20050;-72
2022/03/17 01:07:31;;;;;;;37.97;23.67;;;;;;;8.55;94.07;100958.19;20656659;28;20050;-74
2022/03/17 01:17:32;;;;;;;39.40;25.75;;;;;;;8.66;91.63;100951.22;20655140;28;20050;-73
2022/03/17 01:27:34;;;;;;;39.95;25.63;;;;;;;8.50;93.72;100965.13;20652092;28;20042;-72
2022/03/17 01:37:36;;;;;;;39.80;26.00;;;;;;;8.55;92.79;100966.03;20650314;28;20137;-72
2022/03/17 01:47:38;;;;;;;42.38;26.00;;;;;;;8.48;94.92;100962.53;20651084;28;20046;-71
2022/03/17 01:57:40;;;;;;;42.65;26.83;;;;;;;8.47;94.28;100963.38;20649292;28;20085;-72
2022/03/17 02:07:51;;;;;;;38.85;24.98;;;;;;;8.44;96.19;100956.44;20646694;28;20105;-71
2022/03/17 02:17:53;;;;;;;42.83;27.17;;;;;;;8.32;96.60;100964.19;20645001;28;20108;-72
2022/03/17 02:27:54;;;;;;;47.22;27.90;;;;;;;8.35;97.16;100972.03;20646735;28;20487;-72
2022/03/17 02:37:56;;;;;;;43.33;27.45;;;;;;;8.20;99.07;100977.22;20645013;28;20403;-72
2022/03/17 02:47:58;;;;;;;43.00;26.75;;;;;;;8.05;99.50;100996.28;20644393;28;20506;-71
2022/03/17 02:57:59;;;;;;;46.00;27.88;;;;;;;8.04;100.00;101011.91;20644819;28;20078;-72
2022/03/17 03:08:02;;;;;;;51.03;29.58;;;;;;;8.05;99.85;101008.44;20640329;28;20610;-72
2022/03/17 03:18:04;;;;;;;46.20;29.23;;;;;;;8.05;99.37;101013.66;20643571;28;20500;-72
2022/03/17 03:28:09;;;;;;;50.00;30.85;;;;;;;8.05;98.81;101034.50;20642492;28;20058;-72
2022/03/17 03:38:11;;;;;;;53.00;32.17;;;;;;;8.02;99.25;101030.16;20642419;28;20077;-73
2022/03/17 03:48:12;;;;;;;54.30;33.75;;;;;;;8.05;98.94;101040.63;20646992;28;20294;-72
2022/03/17 03:58:14;;;;;;;50.60;32.53;;;;;;;8.06;99.05;101062.34;20657775;28;20415;-72
2022/03/17 04:08:15;;;;;;;50.22;31.58;;;;;;;8.08;99.56;101061.47;20656771;28;20035;-73
2022/03/17 04:18:17;;;;;;;51.22;32.28;;;;;;;8.00;100.00;101060.59;20657500;28;20046;-72
2022/03/17 04:28:18;;;;;;;49.33;32.50;;;;;;;7.95;100.00;101063.19;20655979;28;20039;-72
2022/03/17 04:38:19;;;;;;;50.45;31.98;;;;;;;7.96;100.00;101054.47;20655050;28;20046;-72
2022/03/17 04:48:21;;;;;;;48.65;31.48;;;;;;;7.98;100.00;101057.09;20652374;28;20043;-73
2022/03/17 04:58:22;;;;;;;53.00;32.85;;;;;;;8.03;100.00;101085.81;20653458;28;20120;-72
2022/03/17 05:08:24;;;;;;;51.25;33.03;;;;;;;7.92;100.00;101098.78;20653414;28;20054;-74
2022/03/17 05:18:26;;;;;;;48.67;32.83;;;;;;;7.91;100.00;101121.38;20654198;28;20104;-74
2022/03/17 05:28:27;;;;;;;53.65;33.13;;;;;;;7.87;100.00;101123.97;20652433;28;20042;-72
2022/03/17 05:38:29;;;;;;;52.45;33.58;;;;;;;7.81;100.00;101137.81;20653829;28;20054;-73
2022/03/17 05:48:30;;;;;;;54.00;32.47;;;;;;;7.89;100.00;101143.94;20654247;28;20046;-73
2022/03/17 05:58:32;;;;;;;49.70;32.58;;;;;;;7.75;100.00;101166.44;20649063;28;20043;-73
2022/03/17 06:08:33;;;;;;;52.78;32.13;;;;;;;7.80;100.00;101164.72;20648548;28;20116;-73
2022/03/17 06:18:35;;;;;;;51.55;33.33;;;;;;;7.79;100.00;101194.28;20647343;28;20053;-76
2022/03/17 06:28:36;;;;;;;58.92;38.15;;;;;;;7.72;100.00;101215.94;20658769;28;20046;-74
2022/03/17 06:38:38;;;;;;;52.22;35.33;;;;;;;7.77;100.00;101229.91;20653435;28;20408;-74
2022/03/17 06:48:39;;;;;;;54.30;34.10;;;;;;;7.88;100.00;101238.69;20651962;28;20242;-75
2022/03/17 06:58:41;;;;;;;50.08;32.25;;;;;;;8.11;100.00;101248.44;20644917;28;20054;-74
2022/03/17 07:08:42;;;;;;;57.80;35.97;;;;;;;8.28;100.00;101267.69;20644860;28;20042;-73
2022/03/17 07:18:44;;;;;;;48.95;31.65;;;;;;;8.41;100.00;101279.13;20646928;28;20055;-76
2022/03/17 07:28:48;;;;;;;54.22;33.70;;;;;;;8.31;100.00;101285.13;20646469;28;20052;-76
2022/03/17 07:38:50;;;;;;;53.70;32.90;;;;;;;8.42;100.00;101305.22;20645438;28;20511;-76
2022/03/17 07:48:52;;;;;;;51.17;32.17;;;;;;;8.64;100.00;101313.22;20646850;28;20137;-77
2022/03/17 07:58:54;;;;;;;46.30;30.17;;;;;;;8.80;99.58;101307.22;20644613;28;20043;-76
2022/03/17 08:08:56;;;;;;;50.80;31.45;;;;;;;8.99;100.00;101311.69;20633420;28;20787;-77
2022/03/17 08:18:58;;;;;;;51.83;32.42;;;;;;;8.90;100.00;101327.31;20637746;28;20101;-78
2022/03/17 08:29:00;;;;;;;50.90;31.95;;;;;;;9.03;100.00;101343.94;20623934;28;20089;-78
2022/03/17 08:39:02;;;;;;;51.67;31.67;;;;;;;9.25;100.00;101344.94;20632297;28;20050;-77
2022/03/17 08:49:22;;;;;;;48.42;30.65;;;;;;;9.51;99.57;101358.09;20647839;28;20054;-74
2022/03/17 08:59:24;;;;;;;52.45;30.85;;;;;;;9.66;98.94;101360.78;20649972;28;20058;-74
2022/03/17 09:09:27;;;;;;;52.90;31.48;;;;;;;9.82;99.68;101374.78;20649160;28;20050;-76
2022/03/17 09:19:29;;;;;;;50.72;31.88;;;;;;;9.94;99.54;101393.13;20649980;28;20054;-76
2022/03/17 09:29:31;;;;;;;53.17;31.70;;;;;;;10.03;97.55;101401.00;20648496;28;20038;-76
2022/03/17 09:39:47;;;;;;;55.70;33.17;;;;;;;10.20;96.68;101398.41;20647681;28;20058;-76
2022/03/17 09:49:53;;;;;;;57.72;34.53;;;;;;;10.30;95.17;101415.06;20647668;28;20093;-76
2022/03/17 09:59:58;;;;;;;56.03;34.75;;;;;;;10.36;92.75;101430.75;20647122;28;20101;-76
2022/03/17 10:10:00;;;;;;;;;;;;;;;10.56;90.73;101437.78;20657072;28;20449;-77
2022/03/17 10:20:10;;;;;;;56.38;35.42;;;;;;;10.72;87.57;101443.00;20647164;28;19926;-77
2022/03/17 10:30:13;;;;;;;57.13;36.13;;;;;;;10.93;89.11;101454.38;20643902;28;20455;-76
2022/03/17 10:40:14;;;;;;;64.30;38.03;;;;;;;11.19;90.25;101462.22;20644053;28;20054;-76
2022/03/17 10:50:19;;;;;;;54.60;35.08;;;;;;;11.45;83.66;101468.28;20643573;28;20050;-76
2022/03/17 11:00:25;;;;;;;50.40;34.20;;;;;;;11.47;77.47;101469.16;20641244;28;20050;-76
2022/03/17 11:10:27;;;;;;;51.60;34.47;;;;;;;11.85;77.27;101476.06;20639715;28;20096;-76
2022/03/17 11:20:30;;;;;;;50.97;33.25;;;;;;;11.82;73.01;101484.81;20639250;28;20488;-76
2022/03/17 11:30:46;;;;;;;51.95;35.97;;;;;;;12.03;73.25;101496.13;20640006;28;20054;-76
2022/03/17 11:41:09;;;;;;;50.35;32.30;;;;;;;11.97;72.21;101502.25;20641325;28;20069;-76
2022/03/17 11:51:14;;;;;;;49.55;32.30;;;;;;;11.96;70.61;101516.25;20639293;28;20050;-76
2022/03/17 12:01:27;;;;;;;45.08;30.33;;;;;;;11.81;71.42;101521.53;20640129;28;20128;-75
2022/03/17 12:11:36;;;;;;;50.38;30.70;;;;;;;11.95;71.98;101535.53;20643350;28;20057;-76
2022/03/17 12:22:02;;;;;;;75.15;43.83;;;;;;;11.86;70.32;101546.03;20654016;28;20424;-75
2022/03/17 12:32:06;;;;;;;47.80;30.77;;;;;;;11.80;69.38;101546.91;20653797;28;20138;-73
2022/03/17 12:42:17;;;;;;;47.63;31.20;;;;;;;11.44;68.28;101565.31;20654863;28;20050;-73
2022/03/17 12:52:25;;;;;;;50.60;32.15;;;;;;;11.36;73.11;101577.56;20651482;28;20085;-73
2022/03/17 13:02:27;;;;;;;73.00;44.67;;;;;;;11.04;78.21;101584.53;20648621;28;20394;-73
2022/03/17 13:23:05;;;;;;;46.83;28.77;;;;;;;10.76;85.45;101609.78;20648720;28;20093;-76
2022/03/17 13:33:12;;;;;;;38.40;22.58;;;;;;;10.31;90.44;101620.97;20649785;28;20097;-74
2022/03/17 13:43:16;;;;;;;29.60;17.83;;;;;;;9.92;93.18;101638.16;20647199;28;20064;-74
2022/03/17 13:53:28;;;;;;;31.63;19.43;;;;;;;9.87;92.39;101644.22;20644876;28;20046;-72
2022/03/17 14:03:34;;;;;;;29.17;16.35;;;;;;;9.62;92.23;101662.34;20642595;28;20437;-75
2022/03/17 14:13:37;;;;;;;24.58;12.90;;;;;;;9.49;90.98;101677.06;20644661;28;20051;-75
2022/03/17 14:34:04;;;;;;;20.83;12.20;;;;;;;9.33;90.43;101693.44;20641669;28;20058;-74
2022/03/17 14:44:07;;;;;;;22.08;13.85;;;;;;;9.23;91.37;101704.66;20645710;28;20108;-74
2022/03/17 14:54:08;;;;;;;20.63;13.07;;;;;;;9.19;91.40;101721.16;20647099;28;20101;-74
2022/03/17 15:04:10;;;;;;;22.83;15.38;;;;;;;9.12;92.56;101725.44;20645094;28;20050;-74
2022/03/17 15:14:13;;;;;;;28.17;15.25;;;;;;;8.97;92.33;101734.00;20643377;28;20100;-74
2022/03/17 15:24:15;;;;;;;24.65;15.73;;;;;;;8.90;93.50;101729.53;20639828;28;20050;-73
2022/03/17 15:34:17;;;;;;;23.98;15.88;;;;;;;8.82;93.32;101735.53;20639653;28;20410;-73
2022/03/17 15:44:20;;;;;;;26.88;16.70;;;;;;;8.77;94.50;101745.94;20643666;28;20046;-73
2022/03/17 15:54:22;;;;;;;29.45;18.25;;;;;;;8.85;94.33;101757.31;20651935;28;20104;-73
2022/03/17 16:04:23;;;;;;;27.50;17.80;;;;;;;8.83;93.75;101774.72;20654391;28;20042;-73
2022/03/17 16:14:31;;;;;;;32.42;20.75;;;;;;;8.73;94.90;101785.91;20653956;28;20058;-74
2022/03/17 16:24:32;;;;;;;28.98;18.48;;;;;;;8.66;96.33;101802.31;20650877;28;20043;-75
2022/03/17 16:34:34;;;;;;;33.08;19.77;;;;;;;8.38;99.86;101809.72;20650685;28;20042;-79
2022/03/17 16:44:36;;;;;;;33.95;17.92;;;;;;;8.38;99.08;101828.00;20654292;28;20524;-78
2022/03/17 16:54:38;;;;;;;27.67;15.73;;;;;;;8.42;97.74;101839.38;20664110;28;20145;-80
2022/03/17 17:04:40;;;;;;;84.20;38.92;;;;;;;8.47;95.72;101859.47;20657945;28;20054;-77
2022/03/17 17:14:42;;;;;;;24.60;13.68;;;;;;;8.41;97.08;101882.88;20653096;28;20060;-78
2022/03/17 17:35:04;;;;;;;29.40;14.35;;;;;;;7.96;100.00;101907.25;20646873;28;20062;-77
2022/03/17 17:45:08;;;;;;;26.42;12.20;;;;;;;7.88;100.00;101916.66;20632045;28;20062;-77
2022/03/17 17:55:12;;;;;;;27.20;12.60;;;;;;;7.99;98.55;101927.28;20628126;28;21419;-78
2022/03/17 18:05:14;;;;;;;24.67;11.53;;;;;;;8.18;94.66;101933.72;20627259;28;20105;-79
2022/03/17 18:15:16;;;;;;;27.60;12.65;;;;;;;8.33;91.68;101927.91;20629352;28;20182;-77
2022/03/17 18:25:18;;;;;;;26.38;12.75;;;;;;;8.37;91.36;101959.34;20623754;28;20352;-76
2022/03/17 18:35:22;;;;;;;25.27;13.18;;;;;;;8.38;91.80;101963.72;20621389;28;20515;-76
2022/03/17 18:45:23;;;;;;;29.30;14.10;;;;;;;8.33;91.98;101970.53;20621153;28;20109;-75
2022/03/17 18:55:26;;;;;;;27.55;14.45;;;;;;;8.31;92.25;101987.91;20620935;28;20149;-76
2022/03/17 19:05:46;;;;;;;30.52;15.25;;;;;;;8.20;94.42;102002.50;20619040;28;20050;-76
2022/03/17 19:15:52;;;;;;;31.83;17.45;;;;;;;7.97;98.66;102018.56;20619919;28;20050;-76
2022/03/17 19:25:56;;;;;;;30.45;17.63;;;;;;;7.87;99.77;102026.16;20618507;28;20038;-76
2022/03/17 19:35:57;;;;;;;28.38;16.05;;;;;;;7.94;97.71;102038.47;20621664;28;20500;-76
2022/03/17 19:46:03;;;;;;;22.88;12.88;;;;;;;7.98;95.75;102046.41;20634523;28;20038;-76
2022/03/17 19:56:09;;;;;;;27.23;13.13;;;;;;;7.85;97.51;102070.44;20638397;28;20121;-76
2022/03/17 20:06:12;;;;;;;23.23;11.57;;;;;;;7.87;96.59;102073.97;20619629;28;20101;-76
2022/03/17 20:16:27;;;;;;;21.02;10.88;;;;;;;8.11;93.84;102073.63;20617466;28;20136;-75
2022/03/17 20:26:29;;;;;;;20.48;10.43;;;;;;;8.26;90.57;102082.63;20618115;28;20051;-76
2022/03/17 20:36:31;;;;;;;19.42;10.00;;;;;;;8.34;88.47;102097.59;20627160;28;20558;-75
2022/03/17 20:46:32;;;;;;;16.73;8.82;;;;;;;8.40;86.82;102105.59;20630144;28;20130;-76
2022/03/17 20:56:34;;;;;;;16.15;9.43;;;;;;;8.43;86.49;102108.25;20630202;28;20050;-75
2022/03/17 21:06:35;;;;;;;14.95;8.25;;;;;;;8.47;84.65;102122.25;20628601;28;20054;-75
2022/03/17 21:16:37;;;;;;;18.30;8.63;;;;;;;8.51;84.63;102131.03;20628978;28;20054;-75
2022/03/17 21:26:38;;;;;;;14.32;8.25;;;;;;;8.45;84.43;102140.50;20628273;28;20046;-75
2022/03/17 21:36:40;;;;;;;15.45;7.55;;;;;;;8.44;83.29;102151.78;20631587;28;20050;-75
2022/03/17 21:46:42;;;;;;;13.57;8.23;;;;;;;8.43;82.67;102159.56;20647287;28;20061;-75
2022/03/17 21:56:43;;;;;;;18.88;7.88;;;;;;;8.43;83.13;102170.91;20647913;28;20070;-75
2022/03/17 22:06:45;;;;;;;14.55;7.63;;;;;;;8.33;84.83;102184.56;20646829;28;20073;-77
2022/03/17 22:17:07;;;;;;;14.38;7.40;;;;;;;8.34;85.14;102193.28;20647432;28;20054;-76
2022/03/17 22:27:25;;;;;;;14.07;7.88;;;;;;;8.22;86.62;102196.50;20643805;28;20141;-76
2022/03/17 22:37:27;;;;;;;14.88;7.70;;;;;;;8.03;86.29;102209.94;20644581;28;20054;-75
2022/03/17 22:47:29;;;;;;;14.98;6.05;;;;;;;7.86;84.10;102207.84;20658794;28;20100;-75
2022/03/17 22:57:31;;;;;;;11.98;4.10;;;;;;;7.85;82.99;102224.31;20657714;28;20109;-76
2022/03/17 23:17:45;;;;;;;11.40;3.45;;;;;;;7.62;82.66;102228.09;20560546;28;20054;-67
2022/03/17 23:27:47;;;;;;;8.63;3.53;;;;;;;7.45;82.91;102225.91;20562284;28;20046;-66
2022/03/17 23:37:52;;;;;;;13.73;4.25;;;;;;;7.49;82.36;102218.19;20561476;28;20101;-65
2022/03/17 23:47:54;;;;;;;;;;;;;;;7.44;82.52;102233.69;20560919;28;20117;-66
2022/03/17 23:57:55;;;;;;;10.40;3.08;;;;;;;7.32;82.08;102243.78;20562388;28;19922;-66
